sensor_id;sensor_type;location;lat;lon;timestamp;P1;durP1;ratioP1;P2;durP2;ratioP2
21727;SDS011;11026;50.560;17.852;2024-02-16T00:01:20;61.08;;;37.22;;
21727;SDS011;11026;50.560;17.852;2024-02-16T00:03:47;55.80;;;35.53;;
21727;SDS011;11026;50.560;17.852;2024-02-16T00:06:14;63.65;;;38.88;;
21727;SDS011;11026;50.560;17.852;2024-02-16T00:08:42;58.53;;;36.92;;
21727;SDS011;11026;50.560;17.852;2024-02-16T00:11:10;60.65;;;37.30;;
21727;SDS011;11026;50.560;17.852;2024-02-16T00:13:37;60.53;;;38.83;;
21727;SDS011;11026;50.560;17.852;2024-02-16T00:16:05;55.35;;;37.28;;
21727;SDS011;11026;50.560;17.852;2024-02-16T00:18:34;56.33;;;37.42;;
21727;SDS011;11026;50.560;17.852;2024-02-16T00:21:02;59.05;;;38.33;;
21727;SDS011;11026;50.560;17.852;2024-02-16T00:23:29;54.38;;;35.90;;
21727;SDS011;11026;50.560;17.852;2024-02-16T00:25:58;58.88;;;37.35;;
21727;SDS011;11026;50.560;17.852;2024-02-16T00:30:55;56.65;;;36.17;;
21727;SDS011;11026;50.560;17.852;2024-02-16T00:33:23;57.83;;;36.38;;
21727;SDS011;11026;50.560;17.852;2024-02-16T00:35:50;55.25;;;34.53;;
21727;SDS011;11026;50.560;17.852;2024-02-16T00:38:21;55.05;;;35.47;;
21727;SDS011;11026;50.560;17.852;2024-02-16T00:40:50;52.95;;;35.53;;
21727;SDS011;11026;50.560;17.852;2024-02-16T00:43:17;50.63;;;33.50;;
21727;SDS011;11026;50.560;17.852;2024-02-16T00:45:45;51.38;;;34.35;;
21727;SDS011;11026;50.560;17.852;2024-02-16T00:48:12;51.88;;;33.67;;
21727;SDS011;11026;50.560;17.852;2024-02-16T00:50:40;50.38;;;33.22;;
21727;SDS011;11026;50.560;17.852;2024-02-16T00:53:10;52.75;;;35.13;;
21727;SDS011;11026;50.560;17.852;2024-02-16T00:55:38;49.60;;;32.25;;
21727;SDS011;11026;50.560;17.852;2024-02-16T00:58:09;49.83;;;32.45;;
21727;SDS011;11026;50.560;17.852;2024-02-16T01:00:36;48.30;;;31.15;;
21727;SDS011;11026;50.560;17.852;2024-02-16T01:03:04;42.00;;;29.83;;
21727;SDS011;11026;50.560;17.852;2024-02-16T01:05:31;44.10;;;28.20;;
21727;SDS011;11026;50.560;17.852;2024-02-16T01:07:59;44.78;;;28.63;;
21727;SDS011;11026;50.560;17.852;2024-02-16T01:12:57;34.70;;;23.77;;
21727;SDS011;11026;50.560;17.852;2024-02-16T01:15:24;38.22;;;25.63;;
21727;SDS011;11026;50.560;17.852;2024-02-16T01:17:53;39.90;;;26.30;;
21727;SDS011;11026;50.560;17.852;2024-02-16T01:20:20;36.35;;;24.80;;
21727;SDS011;11026;50.560;17.852;2024-02-16T01:22:49;34.67;;;23.42;;
21727;SDS011;11026;50.560;17.852;2024-02-16T01:25:16;34.83;;;23.70;;
21727;SDS011;11026;50.560;17.852;2024-02-16T01:27:44;34.65;;;22.70;;
21727;SDS011;11026;50.560;17.852;2024-02-16T01:30:11;33.15;;;23.27;;
21727;SDS011;11026;50.560;17.852;2024-02-16T01:32:39;32.08;;;22.38;;
21727;SDS011;11026;50.560;17.852;2024-02-16T01:35:08;31.42;;;22.02;;
21727;SDS011;11026;50.560;17.852;2024-02-16T01:37:37;30.48;;;21.42;;
21727;SDS011;11026;50.560;17.852;2024-02-16T01:40:04;29.70;;;21.05;;
21727;SDS011;11026;50.560;17.852;2024-02-16T01:42:32;29.05;;;21.00;;
21727;SDS011;11026;50.560;17.852;2024-02-16T01:47:55;28.45;;;20.15;;
21727;SDS011;11026;50.560;17.852;2024-02-16T01:50:24;26.17;;;18.55;;
21727;SDS011;11026;50.560;17.852;2024-02-16T01:52:53;26.08;;;18.30;;
21727;SDS011;11026;50.560;17.852;2024-02-16T01:55:20;25.95;;;18.75;;
21727;SDS011;11026;50.560;17.852;2024-02-16T01:57:48;23.98;;;17.75;;
21727;SDS011;11026;50.560;17.852;2024-02-16T02:00:16;27.73;;;18.42;;
21727;SDS011;11026;50.560;17.852;2024-02-16T02:02:47;25.92;;;18.88;;
21727;SDS011;11026;50.560;17.852;2024-02-16T02:05:15;25.27;;;17.95;;
21727;SDS011;11026;50.560;17.852;2024-02-16T02:07:44;30.27;;;20.05;;
21727;SDS011;11026;50.560;17.852;2024-02-16T02:10:12;32.78;;;20.73;;
21727;SDS011;11026;50.560;17.852;2024-02-16T02:12:40;26.05;;;19.48;;
21727;SDS011;11026;50.560;17.852;2024-02-16T02:17:40;30.38;;;21.33;;
21727;SDS011;11026;50.560;17.852;2024-02-16T02:22:39;28.40;;;21.05;;
21727;SDS011;11026;50.560;17.852;2024-02-16T02:25:06;31.67;;;21.83;;
21727;SDS011;11026;50.560;17.852;2024-02-16T02:27:37;31.70;;;22.52;;
21727;SDS011;11026;50.560;17.852;2024-02-16T02:32:35;34.67;;;25.63;;
21727;SDS011;11026;50.560;17.852;2024-02-16T02:35:03;39.30;;;26.02;;
21727;SDS011;11026;50.560;17.852;2024-02-16T02:37:32;37.42;;;25.55;;
21727;SDS011;11026;50.560;17.852;2024-02-16T02:39:59;39.33;;;26.20;;
21727;SDS011;11026;50.560;17.852;2024-02-16T02:44:57;40.83;;;26.80;;
21727;SDS011;11026;50.560;17.852;2024-02-16T02:47:26;40.28;;;26.92;;
21727;SDS011;11026;50.560;17.852;2024-02-16T02:49:53;42.65;;;27.60;;
21727;SDS011;11026;50.560;17.852;2024-02-16T02:52:21;43.72;;;28.90;;
21727;SDS011;11026;50.560;17.852;2024-02-16T02:54:48;43.40;;;28.55;;
21727;SDS011;11026;50.560;17.852;2024-02-16T02:59:46;45.60;;;30.08;;
21727;SDS011;11026;50.560;17.852;2024-02-16T03:02:14;44.20;;;29.95;;
21727;SDS011;11026;50.560;17.852;2024-02-16T03:04:42;42.60;;;28.92;;
21727;SDS011;11026;50.560;17.852;2024-02-16T03:07:09;45.25;;;29.50;;
21727;SDS011;11026;50.560;17.852;2024-02-16T03:09:37;44.55;;;29.65;;
21727;SDS011;11026;50.560;17.852;2024-02-16T03:12:04;43.15;;;29.38;;
21727;SDS011;11026;50.560;17.852;2024-02-16T03:14:32;43.83;;;28.75;;
21727;SDS011;11026;50.560;17.852;2024-02-16T03:19:30;47.50;;;30.90;;
21727;SDS011;11026;50.560;17.852;2024-02-16T03:27:00;50.72;;;33.38;;
21727;SDS011;11026;50.560;17.852;2024-02-16T03:29:28;47.88;;;31.58;;
21727;SDS011;11026;50.560;17.852;2024-02-16T03:31:56;48.28;;;31.35;;
21727;SDS011;11026;50.560;17.852;2024-02-16T03:36:57;40.63;;;29.00;;
21727;SDS011;11026;50.560;17.852;2024-02-16T03:39:25;40.75;;;27.67;;
21727;SDS011;11026;50.560;17.852;2024-02-16T03:41:52;41.35;;;29.27;;
21727;SDS011;11026;50.560;17.852;2024-02-16T03:44:21;44.92;;;30.92;;
21727;SDS011;11026;50.560;17.852;2024-02-16T03:46:49;46.63;;;30.77;;
21727;SDS011;11026;50.560;17.852;2024-02-16T03:49:21;47.88;;;31.33;;
21727;SDS011;11026;50.560;17.852;2024-02-16T03:51:48;46.50;;;31.75;;
21727;SDS011;11026;50.560;17.852;2024-02-16T03:54:15;42.40;;;29.55;;
21727;SDS011;11026;50.560;17.852;2024-02-16T03:56:43;45.20;;;29.23;;
21727;SDS011;11026;50.560;17.852;2024-02-16T03:59:12;41.60;;;28.98;;
21727;SDS011;11026;50.560;17.852;2024-02-16T04:01:39;47.97;;;30.38;;
21727;SDS011;11026;50.560;17.852;2024-02-16T04:04:08;49.78;;;31.13;;
21727;SDS011;11026;50.560;17.852;2024-02-16T04:06:36;51.13;;;31.70;;
21727;SDS011;11026;50.560;17.852;2024-02-16T04:09:04;48.80;;;31.65;;
21727;SDS011;11026;50.560;17.852;2024-02-16T04:11:35;49.40;;;30.02;;
21727;SDS011;11026;50.560;17.852;2024-02-16T04:14:02;49.10;;;30.05;;
21727;SDS011;11026;50.560;17.852;2024-02-16T04:16:29;45.22;;;29.67;;
21727;SDS011;11026;50.560;17.852;2024-02-16T04:18:57;42.35;;;28.67;;
21727;SDS011;11026;50.560;17.852;2024-02-16T04:21:25;44.72;;;30.73;;
21727;SDS011;11026;50.560;17.852;2024-02-16T04:23:52;51.17;;;31.38;;
21727;SDS011;11026;50.560;17.852;2024-02-16T04:26:21;52.80;;;32.65;;
21727;SDS011;11026;50.560;17.852;2024-02-16T04:28:48;55.55;;;32.45;;
21727;SDS011;11026;50.560;17.852;2024-02-16T04:31:16;52.03;;;30.83;;
21727;SDS011;11026;50.560;17.852;2024-02-16T04:33:45;57.53;;;32.08;;
21727;SDS011;11026;50.560;17.852;2024-02-16T04:36:12;58.67;;;32.00;;
21727;SDS011;11026;50.560;17.852;2024-02-16T04:38:40;46.00;;;29.73;;
21727;SDS011;11026;50.560;17.852;2024-02-16T04:41:07;40.92;;;27.73;;
21727;SDS011;11026;50.560;17.852;2024-02-16T04:43:35;41.97;;;28.80;;
21727;SDS011;11026;50.560;17.852;2024-02-16T04:46:02;44.03;;;29.38;;
21727;SDS011;11026;50.560;17.852;2024-02-16T04:48:31;42.95;;;29.33;;
21727;SDS011;11026;50.560;17.852;2024-02-16T04:50:59;43.08;;;28.90;;
21727;SDS011;11026;50.560;17.852;2024-02-16T04:53:26;48.35;;;29.88;;
21727;SDS011;11026;50.560;17.852;2024-02-16T04:55:53;49.35;;;29.60;;
21727;SDS011;11026;50.560;17.852;2024-02-16T05:00:50;51.17;;;30.50;;
21727;SDS011;11026;50.560;17.852;2024-02-16T05:03:19;56.97;;;32.92;;
21727;SDS011;11026;50.560;17.852;2024-02-16T05:05:46;48.83;;;30.27;;
21727;SDS011;11026;50.560;17.852;2024-02-16T05:08:14;50.10;;;29.85;;
21727;SDS011;11026;50.560;17.852;2024-02-16T05:10:41;48.10;;;30.38;;
21727;SDS011;11026;50.560;17.852;2024-02-16T05:13:09;47.28;;;29.70;;
21727;SDS011;11026;50.560;17.852;2024-02-16T05:15:38;53.20;;;31.70;;
21727;SDS011;11026;50.560;17.852;2024-02-16T05:20:37;40.15;;;29.20;;
21727;SDS011;11026;50.560;17.852;2024-02-16T05:23:05;46.10;;;29.40;;
21727;SDS011;11026;50.560;17.852;2024-02-16T05:25:32;44.25;;;29.50;;
21727;SDS011;11026;50.560;17.852;2024-02-16T05:28:00;43.75;;;28.17;;
21727;SDS011;11026;50.560;17.852;2024-02-16T05:30:28;42.53;;;27.50;;
21727;SDS011;11026;50.560;17.852;2024-02-16T05:32:55;42.65;;;28.55;;
21727;SDS011;11026;50.560;17.852;2024-02-16T05:35:26;45.08;;;27.17;;
21727;SDS011;11026;50.560;17.852;2024-02-16T05:37:55;46.70;;;28.63;;
21727;SDS011;11026;50.560;17.852;2024-02-16T05:40:24;56.22;;;30.92;;
21727;SDS011;11026;50.560;17.852;2024-02-16T05:42:55;49.38;;;30.35;;
21727;SDS011;11026;50.560;17.852;2024-02-16T05:45:26;44.92;;;28.23;;
21727;SDS011;11026;50.560;17.852;2024-02-16T05:47:54;43.45;;;28.15;;
21727;SDS011;11026;50.560;17.852;2024-02-16T05:50:21;37.03;;;27.02;;
21727;SDS011;11026;50.560;17.852;2024-02-16T05:52:50;44.47;;;28.35;;
21727;SDS011;11026;50.560;17.852;2024-02-16T05:55:18;40.47;;;28.27;;
21727;SDS011;11026;50.560;17.852;2024-02-16T05:57:46;39.67;;;28.10;;
21727;SDS011;11026;50.560;17.852;2024-02-16T06:00:14;39.33;;;27.27;;
21727;SDS011;11026;50.560;17.852;2024-02-16T06:02:43;40.08;;;26.08;;
21727;SDS011;11026;50.560;17.852;2024-02-16T06:05:10;38.10;;;27.75;;
21727;SDS011;11026;50.560;17.852;2024-02-16T06:07:39;36.45;;;26.27;;
21727;SDS011;11026;50.560;17.852;2024-02-16T06:10:08;35.72;;;25.15;;
21727;SDS011;11026;50.560;17.852;2024-02-16T06:12:38;42.05;;;26.02;;
21727;SDS011;11026;50.560;17.852;2024-02-16T06:15:07;39.00;;;25.52;;
21727;SDS011;11026;50.560;17.852;2024-02-16T06:17:35;44.35;;;26.52;;
21727;SDS011;11026;50.560;17.852;2024-02-16T06:20:05;36.13;;;25.08;;
21727;SDS011;11026;50.560;17.852;2024-02-16T06:22:36;34.47;;;22.73;;
21727;SDS011;11026;50.560;17.852;2024-02-16T06:25:03;33.72;;;22.67;;
21727;SDS011;11026;50.560;17.852;2024-02-16T06:30:05;35.42;;;22.85;;
21727;SDS011;11026;50.560;17.852;2024-02-16T06:32:34;33.28;;;21.15;;
21727;SDS011;11026;50.560;17.852;2024-02-16T06:35:01;35.15;;;21.48;;
21727;SDS011;11026;50.560;17.852;2024-02-16T06:40:00;32.33;;;20.13;;
21727;SDS011;11026;50.560;17.852;2024-02-16T06:42:27;27.33;;;20.85;;
21727;SDS011;11026;50.560;17.852;2024-02-16T06:44:54;29.13;;;20.77;;
21727;SDS011;11026;50.560;17.852;2024-02-16T06:47:23;30.80;;;20.13;;
21727;SDS011;11026;50.560;17.852;2024-02-16T06:49:53;25.20;;;18.95;;
21727;SDS011;11026;50.560;17.852;2024-02-16T06:52:21;26.63;;;19.17;;
21727;SDS011;11026;50.560;17.852;2024-02-16T06:57:19;27.75;;;19.50;;
21727;SDS011;11026;50.560;17.852;2024-02-16T06:59:47;24.00;;;17.75;;
21727;SDS011;11026;50.560;17.852;2024-02-16T07:02:14;26.08;;;17.08;;
21727;SDS011;11026;50.560;17.852;2024-02-16T07:04:42;25.95;;;17.55;;
21727;SDS011;11026;50.560;17.852;2024-02-16T07:07:09;25.23;;;18.13;;
21727;SDS011;11026;50.560;17.852;2024-02-16T07:09:39;27.17;;;16.83;;
21727;SDS011;11026;50.560;17.852;2024-02-16T07:12:06;25.73;;;17.48;;
21727;SDS011;11026;50.560;17.852;2024-02-16T07:14:34;23.00;;;16.80;;
21727;SDS011;11026;50.560;17.852;2024-02-16T07:17:02;22.45;;;16.60;;
21727;SDS011;11026;50.560;17.852;2024-02-16T07:19:28;24.00;;;15.15;;
21727;SDS011;11026;50.560;17.852;2024-02-16T07:21:56;23.13;;;16.15;;
21727;SDS011;11026;50.560;17.852;2024-02-16T07:24:25;21.83;;;16.52;;
21727;SDS011;11026;50.560;17.852;2024-02-16T07:26:54;21.23;;;15.50;;
21727;SDS011;11026;50.560;17.852;2024-02-16T07:29:21;21.25;;;14.90;;
21727;SDS011;11026;50.560;17.852;2024-02-16T07:31:48;19.23;;;14.30;;
21727;SDS011;11026;50.560;17.852;2024-02-16T07:34:17;19.60;;;14.68;;
21727;SDS011;11026;50.560;17.852;2024-02-16T07:36:45;20.80;;;14.95;;
21727;SDS011;11026;50.560;17.852;2024-02-16T07:39:13;21.08;;;14.90;;
21727;SDS011;11026;50.560;17.852;2024-02-16T07:41:40;20.98;;;14.27;;
21727;SDS011;11026;50.560;17.852;2024-02-16T07:44:08;22.35;;;15.02;;
21727;SDS011;11026;50.560;17.852;2024-02-16T07:46:39;20.42;;;13.90;;
21727;SDS011;11026;50.560;17.852;2024-02-16T07:49:07;19.90;;;13.80;;
21727;SDS011;11026;50.560;17.852;2024-02-16T07:51:40;20.70;;;13.77;;
21727;SDS011;11026;50.560;17.852;2024-02-16T07:54:07;18.27;;;13.48;;
21727;SDS011;11026;50.560;17.852;2024-02-16T07:56:35;19.98;;;13.23;;
21727;SDS011;11026;50.560;17.852;2024-02-16T07:59:04;21.02;;;13.32;;
21727;SDS011;11026;50.560;17.852;2024-02-16T08:01:31;16.85;;;12.13;;
21727;SDS011;11026;50.560;17.852;2024-02-16T08:03:58;16.45;;;12.50;;
21727;SDS011;11026;50.560;17.852;2024-02-16T08:06:29;20.20;;;12.70;;
21727;SDS011;11026;50.560;17.852;2024-02-16T08:11:27;14.60;;;9.48;;
21727;SDS011;11026;50.560;17.852;2024-02-16T08:13:55;12.23;;;9.52;;
21727;SDS011;11026;50.560;17.852;2024-02-16T08:16:27;18.15;;;11.73;;
21727;SDS011;11026;50.560;17.852;2024-02-16T08:18:54;16.70;;;11.77;;
21727;SDS011;11026;50.560;17.852;2024-02-16T08:21:21;16.45;;;11.18;;
21727;SDS011;11026;50.560;17.852;2024-02-16T08:23:48;20.45;;;12.70;;
21727;SDS011;11026;50.560;17.852;2024-02-16T08:26:16;14.63;;;10.38;;
21727;SDS011;11026;50.560;17.852;2024-02-16T08:31:17;15.45;;;11.60;;
21727;SDS011;11026;50.560;17.852;2024-02-16T08:33:45;17.98;;;11.18;;
21727;SDS011;11026;50.560;17.852;2024-02-16T08:36:16;12.88;;;9.10;;
21727;SDS011;11026;50.560;17.852;2024-02-16T08:38:43;17.40;;;12.18;;
21727;SDS011;11026;50.560;17.852;2024-02-16T08:41:13;14.60;;;10.88;;
21727;SDS011;11026;50.560;17.852;2024-02-16T08:43:41;15.40;;;11.05;;
21727;SDS011;11026;50.560;17.852;2024-02-16T08:46:08;17.33;;;10.23;;
21727;SDS011;11026;50.560;17.852;2024-02-16T08:48:36;16.58;;;11.32;;
21727;SDS011;11026;50.560;17.852;2024-02-16T08:51:03;17.35;;;10.70;;
21727;SDS011;11026;50.560;17.852;2024-02-16T08:53:31;17.55;;;10.20;;
21727;SDS011;11026;50.560;17.852;2024-02-16T08:55:58;17.42;;;10.50;;
21727;SDS011;11026;50.560;17.852;2024-02-16T08:58:25;12.60;;;9.60;;
21727;SDS011;11026;50.560;17.852;2024-02-16T09:00:52;13.50;;;9.77;;
21727;SDS011;11026;50.560;17.852;2024-02-16T09:03:19;11.48;;;8.65;;
21727;SDS011;11026;50.560;17.852;2024-02-16T09:05:48;15.35;;;9.68;;
21727;SDS011;11026;50.560;17.852;2024-02-16T09:08:15;12.70;;;8.10;;
21727;SDS011;11026;50.560;17.852;2024-02-16T09:10:42;16.58;;;9.65;;
21727;SDS011;11026;50.560;17.852;2024-02-16T09:13:09;9.43;;;6.93;;
21727;SDS011;11026;50.560;17.852;2024-02-16T09:15:36;11.95;;;7.55;;
21727;SDS011;11026;50.560;17.852;2024-02-16T09:18:05;10.98;;;7.38;;
21727;SDS011;11026;50.560;17.852;2024-02-16T09:20:32;14.43;;;8.05;;
21727;SDS011;11026;50.560;17.852;2024-02-16T09:22:59;10.52;;;8.10;;
21727;SDS011;11026;50.560;17.852;2024-02-16T09:25:29;10.55;;;6.90;;
21727;SDS011;11026;50.560;17.852;2024-02-16T09:27:56;10.23;;;7.47;;
21727;SDS011;11026;50.560;17.852;2024-02-16T09:30:24;9.82;;;6.95;;
21727;SDS011;11026;50.560;17.852;2024-02-16T09:32:51;7.10;;;5.78;;
21727;SDS011;11026;50.560;17.852;2024-02-16T09:35:21;10.95;;;6.90;;
21727;SDS011;11026;50.560;17.852;2024-02-16T09:37:49;8.50;;;5.65;;
21727;SDS011;11026;50.560;17.852;2024-02-16T09:40:16;7.55;;;6.15;;
21727;SDS011;11026;50.560;17.852;2024-02-16T09:42:47;9.35;;;6.30;;
21727;SDS011;11026;50.560;17.852;2024-02-16T09:45:16;9.43;;;6.57;;
21727;SDS011;11026;50.560;17.852;2024-02-16T09:47:44;7.78;;;6.10;;
21727;SDS011;11026;50.560;17.852;2024-02-16T09:52:57;11.07;;;5.53;;
21727;SDS011;11026;50.560;17.852;2024-02-16T09:55:25;6.97;;;5.18;;
21727;SDS011;11026;50.560;17.852;2024-02-16T09:57:59;7.07;;;5.65;;
21727;SDS011;11026;50.560;17.852;2024-02-16T10:00:27;8.55;;;5.35;;
21727;SDS011;11026;50.560;17.852;2024-02-16T10:02:54;7.25;;;5.28;;
21727;SDS011;11026;50.560;17.852;2024-02-16T10:05:21;11.75;;;5.25;;
21727;SDS011;11026;50.560;17.852;2024-02-16T10:07:49;5.95;;;4.80;;
21727;SDS011;11026;50.560;17.852;2024-02-16T10:10:27;8.50;;;5.15;;
21727;SDS011;11026;50.560;17.852;2024-02-16T10:13:02;7.75;;;5.38;;
21727;SDS011;11026;50.560;17.852;2024-02-16T10:15:32;6.95;;;4.65;;
21727;SDS011;11026;50.560;17.852;2024-02-16T10:20:30;5.88;;;4.43;;
21727;SDS011;11026;50.560;17.852;2024-02-16T10:25:41;7.30;;;4.13;;
21727;SDS011;11026;50.560;17.852;2024-02-16T10:28:08;5.63;;;4.20;;
21727;SDS011;11026;50.560;17.852;2024-02-16T10:30:41;7.95;;;3.60;;
21727;SDS011;11026;50.560;17.852;2024-02-16T10:33:12;5.65;;;3.80;;
21727;SDS011;11026;50.560;17.852;2024-02-16T10:35:39;5.00;;;3.40;;
21727;SDS011;11026;50.560;17.852;2024-02-16T10:38:09;6.47;;;3.88;;
21727;SDS011;11026;50.560;17.852;2024-02-16T10:40:39;6.10;;;3.40;;
21727;SDS011;11026;50.560;17.852;2024-02-16T10:43:08;6.38;;;3.50;;
21727;SDS011;11026;50.560;17.852;2024-02-16T10:45:37;4.07;;;3.10;;
21727;SDS011;11026;50.560;17.852;2024-02-16T10:48:06;4.75;;;2.92;;
21727;SDS011;11026;50.560;17.852;2024-02-16T10:50:36;4.13;;;2.67;;
21727;SDS011;11026;50.560;17.852;2024-02-16T10:55:46;11.10;;;2.63;;
21727;SDS011;11026;50.560;17.852;2024-02-16T10:58:13;4.72;;;3.45;;
21727;SDS011;11026;50.560;17.852;2024-02-16T11:00:50;4.82;;;3.25;;
21727;SDS011;11026;50.560;17.852;2024-02-16T11:03:21;4.35;;;3.05;;
21727;SDS011;11026;50.560;17.852;2024-02-16T11:05:55;8.18;;;3.80;;
21727;SDS011;11026;50.560;17.852;2024-02-16T11:08:25;4.00;;;3.42;;
21727;SDS011;11026;50.560;17.852;2024-02-16T11:13:28;4.00;;;3.05;;
21727;SDS011;11026;50.560;17.852;2024-02-16T11:16:03;7.03;;;3.85;;
21727;SDS011;11026;50.560;17.852;2024-02-16T11:18:38;3.38;;;2.65;;
21727;SDS011;11026;50.560;17.852;2024-02-16T11:21:07;3.10;;;2.80;;
21727;SDS011;11026;50.560;17.852;2024-02-16T11:23:40;4.97;;;3.65;;
21727;SDS011;11026;50.560;17.852;2024-02-16T11:26:11;4.80;;;3.60;;
21727;SDS011;11026;50.560;17.852;2024-02-16T11:28:41;3.00;;;2.65;;
21727;SDS011;11026;50.560;17.852;2024-02-16T11:31:09;5.60;;;3.08;;
21727;SDS011;11026;50.560;17.852;2024-02-16T11:36:10;5.97;;;3.30;;
21727;SDS011;11026;50.560;17.852;2024-02-16T11:38:39;4.18;;;3.33;;
21727;SDS011;11026;50.560;17.852;2024-02-16T11:41:06;5.50;;;3.47;;
21727;SDS011;11026;50.560;17.852;2024-02-16T11:43:34;4.57;;;3.05;;
21727;SDS011;11026;50.560;17.852;2024-02-16T11:48:44;3.55;;;2.95;;
21727;SDS011;11026;50.560;17.852;2024-02-16T11:53:54;4.93;;;3.42;;
21727;SDS011;11026;50.560;17.852;2024-02-16T11:58:54;4.68;;;2.67;;
21727;SDS011;11026;50.560;17.852;2024-02-16T12:01:21;5.55;;;3.90;;
21727;SDS011;11026;50.560;17.852;2024-02-16T12:03:48;4.72;;;3.13;;
21727;SDS011;11026;50.560;17.852;2024-02-16T12:06:20;2.90;;;2.60;;
21727;SDS011;11026;50.560;17.852;2024-02-16T12:08:49;5.03;;;2.95;;
21727;SDS011;11026;50.560;17.852;2024-02-16T12:11:23;4.20;;;3.60;;
21727;SDS011;11026;50.560;17.852;2024-02-16T12:13:50;4.47;;;2.67;;
21727;SDS011;11026;50.560;17.852;2024-02-16T12:16:19;5.05;;;3.15;;
21727;SDS011;11026;50.560;17.852;2024-02-16T12:18:48;4.38;;;3.40;;
21727;SDS011;11026;50.560;17.852;2024-02-16T12:21:17;4.97;;;2.72;;
21727;SDS011;11026;50.560;17.852;2024-02-16T12:23:47;4.00;;;2.95;;
21727;SDS011;11026;50.560;17.852;2024-02-16T12:26:15;3.75;;;3.00;;
21727;SDS011;11026;50.560;17.852;2024-02-16T12:28:44;5.20;;;3.25;;
21727;SDS011;11026;50.560;17.852;2024-02-16T12:31:17;3.28;;;2.80;;
21727;SDS011;11026;50.560;17.852;2024-02-16T12:33:45;6.95;;;3.67;;
21727;SDS011;11026;50.560;17.852;2024-02-16T12:36:13;4.78;;;3.05;;
21727;SDS011;11026;50.560;17.852;2024-02-16T12:38:41;4.20;;;2.95;;
21727;SDS011;11026;50.560;17.852;2024-02-16T12:41:08;3.17;;;2.80;;
21727;SDS011;11026;50.560;17.852;2024-02-16T12:43:35;4.05;;;2.83;;
21727;SDS011;11026;50.560;17.852;2024-02-16T12:46:02;5.10;;;2.95;;
21727;SDS011;11026;50.560;17.852;2024-02-16T12:48:31;3.95;;;2.78;;
21727;SDS011;11026;50.560;17.852;2024-02-16T12:50:58;5.65;;;3.10;;
21727;SDS011;11026;50.560;17.852;2024-02-16T12:53:26;4.38;;;2.75;;
21727;SDS011;11026;50.560;17.852;2024-02-16T12:55:55;5.05;;;3.10;;
21727;SDS011;11026;50.560;17.852;2024-02-16T12:58:23;5.88;;;3.40;;
21727;SDS011;11026;50.560;17.852;2024-02-16T13:00:50;5.18;;;3.45;;
21727;SDS011;11026;50.560;17.852;2024-02-16T13:03:17;4.85;;;3.08;;
21727;SDS011;11026;50.560;17.852;2024-02-16T13:05:45;4.25;;;3.10;;
21727;SDS011;11026;50.560;17.852;2024-02-16T13:08:14;5.28;;;3.30;;
21727;SDS011;11026;50.560;17.852;2024-02-16T13:10:42;5.88;;;2.92;;
21727;SDS011;11026;50.560;17.852;2024-02-16T13:13:09;5.07;;;3.15;;
21727;SDS011;11026;50.560;17.852;2024-02-16T13:15:36;3.90;;;3.30;;
21727;SDS011;11026;50.560;17.852;2024-02-16T13:18:03;6.88;;;3.33;;
21727;SDS011;11026;50.560;17.852;2024-02-16T13:20:31;4.97;;;3.20;;
21727;SDS011;11026;50.560;17.852;2024-02-16T13:22:58;4.50;;;3.53;;
21727;SDS011;11026;50.560;17.852;2024-02-16T13:25:26;8.95;;;3.30;;
21727;SDS011;11026;50.560;17.852;2024-02-16T13:27:53;4.13;;;3.50;;
21727;SDS011;11026;50.560;17.852;2024-02-16T13:30:20;5.05;;;3.90;;
21727;SDS011;11026;50.560;17.852;2024-02-16T13:32:49;4.57;;;4.13;;
21727;SDS011;11026;50.560;17.852;2024-02-16T13:35:18;5.40;;;3.65;;
21727;SDS011;11026;50.560;17.852;2024-02-16T13:37:47;5.45;;;3.90;;
21727;SDS011;11026;50.560;17.852;2024-02-16T13:40:15;4.28;;;3.72;;
21727;SDS011;11026;50.560;17.852;2024-02-16T13:42:46;5.72;;;3.80;;
21727;SDS011;11026;50.560;17.852;2024-02-16T13:48:16;6.00;;;3.92;;
21727;SDS011;11026;50.560;17.852;2024-02-16T13:50:45;6.30;;;3.80;;
21727;SDS011;11026;50.560;17.852;2024-02-16T13:53:17;6.68;;;3.60;;
21727;SDS011;11026;50.560;17.852;2024-02-16T13:55:48;4.70;;;3.28;;
21727;SDS011;11026;50.560;17.852;2024-02-16T13:58:15;5.07;;;3.67;;
21727;SDS011;11026;50.560;17.852;2024-02-16T14:00:43;4.90;;;4.13;;
21727;SDS011;11026;50.560;17.852;2024-02-16T14:03:14;5.55;;;3.63;;
21727;SDS011;11026;50.560;17.852;2024-02-16T14:05:42;5.68;;;4.13;;
21727;SDS011;11026;50.560;17.852;2024-02-16T14:08:12;4.10;;;3.55;;
21727;SDS011;11026;50.560;17.852;2024-02-16T14:10:42;4.40;;;3.58;;
21727;SDS011;11026;50.560;17.852;2024-02-16T14:15:40;6.60;;;4.25;;
21727;SDS011;11026;50.560;17.852;2024-02-16T14:18:07;6.00;;;4.03;;
21727;SDS011;11026;50.560;17.852;2024-02-16T14:20:47;5.70;;;3.80;;
21727;SDS011;11026;50.560;17.852;2024-02-16T14:23:15;6.60;;;3.95;;
21727;SDS011;11026;50.560;17.852;2024-02-16T14:25:44;4.97;;;3.67;;
21727;SDS011;11026;50.560;17.852;2024-02-16T14:28:14;5.07;;;3.85;;
21727;SDS011;11026;50.560;17.852;2024-02-16T14:30:42;5.65;;;3.95;;
21727;SDS011;11026;50.560;17.852;2024-02-16T14:33:10;7.60;;;4.22;;
21727;SDS011;11026;50.560;17.852;2024-02-16T14:35:37;5.55;;;3.80;;
21727;SDS011;11026;50.560;17.852;2024-02-16T14:38:05;6.63;;;4.03;;
21727;SDS011;11026;50.560;17.852;2024-02-16T14:40:32;9.93;;;4.30;;
21727;SDS011;11026;50.560;17.852;2024-02-16T14:43:01;6.57;;;4.28;;
21727;SDS011;11026;50.560;17.852;2024-02-16T14:45:28;7.63;;;4.43;;
21727;SDS011;11026;50.560;17.852;2024-02-16T14:47:56;5.72;;;4.20;;
21727;SDS011;11026;50.560;17.852;2024-02-16T14:50:24;6.35;;;4.28;;
21727;SDS011;11026;50.560;17.852;2024-02-16T14:52:52;5.78;;;4.30;;
21727;SDS011;11026;50.560;17.852;2024-02-16T14:55:20;5.63;;;4.53;;
21727;SDS011;11026;50.560;17.852;2024-02-16T14:57:48;6.65;;;4.07;;
21727;SDS011;11026;50.560;17.852;2024-02-16T15:00:15;5.47;;;4.43;;
21727;SDS011;11026;50.560;17.852;2024-02-16T15:02:45;7.18;;;5.13;;
21727;SDS011;11026;50.560;17.852;2024-02-16T15:05:16;5.93;;;4.38;;
21727;SDS011;11026;50.560;17.852;2024-02-16T15:07:45;6.88;;;4.57;;
21727;SDS011;11026;50.560;17.852;2024-02-16T15:10:12;6.15;;;4.47;;
21727;SDS011;11026;50.560;17.852;2024-02-16T15:12:39;4.18;;;3.70;;
21727;SDS011;11026;50.560;17.852;2024-02-16T15:15:07;7.15;;;4.47;;
21727;SDS011;11026;50.560;17.852;2024-02-16T15:17:34;6.13;;;4.10;;
21727;SDS011;11026;50.560;17.852;2024-02-16T15:20:02;7.57;;;4.53;;
21727;SDS011;11026;50.560;17.852;2024-02-16T15:22:30;7.10;;;4.65;;
21727;SDS011;11026;50.560;17.852;2024-02-16T15:25:11;7.63;;;4.40;;
21727;SDS011;11026;50.560;17.852;2024-02-16T15:27:39;6.10;;;4.72;;
21727;SDS011;11026;50.560;17.852;2024-02-16T15:30:06;6.03;;;4.80;;
21727;SDS011;11026;50.560;17.852;2024-02-16T15:32:34;5.80;;;4.40;;
21727;SDS011;11026;50.560;17.852;2024-02-16T15:35:01;8.40;;;4.57;;
21727;SDS011;11026;50.560;17.852;2024-02-16T15:37:29;6.20;;;4.68;;
21727;SDS011;11026;50.560;17.852;2024-02-16T15:42:31;7.35;;;4.88;;
21727;SDS011;11026;50.560;17.852;2024-02-16T15:45:01;6.28;;;4.75;;